M/V Adamas — SXYL — position and weather

sailwx.info

Track history (hours):
 
Tides and Currents Weather Stations Pressure Air Temp Water Temp Dewpoint Dewpoint Depression Visibility Wind Speed Wind Dir Waves Ship Positions

M/V Adamas

Last reported at 2017-Sep-19 17:03 UTC. Time now 2017-Sep-24 07:01 UTC.
Position N 38°12' E 024°07'.

Length 124 m; draft 5.6 m.

Type: Cargo ship. MMSI: 240544000.

Date/timePositionNaut miles runAvg speedWind from/ knotsBaromVisibWave heightAir tempDewpointWater temp
2017-Sep-19 17:03N 38°12' E 024°07'212.1
2017-Sep-19 16:56N 38°10' E 024°08'512.3
2017-Sep-19 16:30N 38°05' E 024°08'912.4
2017-Sep-19 15:47N 37°57' E 024°14'412.6
2017-Sep-19 15:30N 37°54' E 024°16'612.5
2017-Sep-19 15:00N 37°49' E 024°21'1211.8
2017-Sep-19 14:00N 37°40' E 024°31'1611.9
2017-Sep-19 12:38N 37°28' E 024°44'211.9
2017-Sep-19 12:31N 37°26' E 024°45'612.0
2017-Sep-19 12:01N 37°21' E 024°49'611.9
2017-Sep-19 11:30N 37°15' E 024°50'55011.8
2017-Sep-17 12:49N 32°56' E 034°42'511.9
2017-Sep-17 12:25N 32°55' E 034°48'511.9
2017-Sep-17 11:57N 32°54' E 034°54'611.3
2017-Sep-17 11:23N 32°51' E 035°01'2 0.1
2017-Sep-16 04:29N 32°49' E 035°02'2 3.4
2017-Sep-16 03:53N 32°51' E 035°01'2 5.2
2017-Sep-16 03:26N 32°52' E 034°59'4 9.0
2017-Sep-16 03:00N 32°54' E 034°55'0 0.7
2017-Sep-16 02:30N 32°54' E 034°54'0 0.3
2017-Sep-16 02:00N 32°54' E 034°55'1 2.3
2017-Sep-16 01:30N 32°54' E 034°53'1 2.5
2017-Sep-16 01:00N 32°54' E 034°52'4 5.6
2017-Sep-16 00:13N 32°55' E 034°47'2 8.0
2017-Sep-15 23:59N 32°55' E 034°44'5 9.3
2017-Sep-15 23:30N 32°56' E 034°39'3210.3
2017-Sep-15 20:25N 33°02' E 034°02'1910.8
2017-Sep-15 18:38N 33°10' E 033°41'210.9
2017-Sep-15 18:26N 33°11' E 033°39'510.8
2017-Sep-15 18:00N 33°14' E 033°34'710.8
2017-Sep-15 17:23N 33°17' E 033°27'510.8
2017-Sep-15 16:55N 33°19' E 033°22'610.8
2017-Sep-15 16:20N 33°22' E 033°15'510.7
2017-Sep-15 15:53N 33°25' E 033°10'46410.9
2017-Sep-13 21:10N 37°09' E 024°52'211.6
2017-Sep-13 21:00N 37°11' E 024°52'611.2
2017-Sep-13 20:30N 37°16' E 024°50'611.0
2017-Sep-13 20:00N 37°22' E 024°48'611.2
2017-Sep-13 19:30N 37°26' E 024°44'54 1.1
2017-Sep-11 16:20N 38°11' E 024°07'412.2
2017-Sep-11 16:00N 38°07' E 024°08'511.0
2017-Sep-11 15:30N 38°02' E 024°10'610.7
2017-Sep-11 14:59N 37°57' E 024°14'510.7
2017-Sep-11 14:30N 37°53' E 024°18'510.8
2017-Sep-11 14:00N 37°49' E 024°23'2810.7
2017-Sep-11 11:26N 37°27' E 024°44'510.6
2017-Sep-11 11:00N 37°24' E 024°47'510.5
2017-Sep-11 10:30N 37°19' E 024°49'510.7
2017-Sep-11 10:00N 37°13' E 024°51'24 9.5
2017-Sep-11 07:31N 36°53' E 025°05'010.9
2017-Sep-11 07:30N 36°53' E 025°05'27911.6
2017-Sep-10 07:25N 34°45' E 030°10'511.7
2017-Sep-10 07:00N 34°43' E 030°16'611.5
2017-Sep-10 06:30N 34°40' E 030°22'611.5
2017-Sep-10 06:00N 34°37' E 030°28'611.4
2017-Sep-10 05:30N 34°35' E 030°34'611.7
2017-Sep-10 05:00N 34°32' E 030°40'611.8
2017-Sep-10 04:30N 34°29' E 030°46'611.7
2017-Sep-10 04:00N 34°26' E 030°53'611.8
2017-Sep-10 03:30N 34°23' E 030°59'611.7
2017-Sep-10 03:00N 34°21' E 031°05'611.9
2017-Sep-10 02:30N 34°18' E 031°12'711.9
2017-Sep-10 01:54N 34°14' E 031°19'512.0
2017-Sep-10 01:29N 34°12' E 031°25'612.1
2017-Sep-10 01:00N 34°09' E 031°31'612.2
2017-Sep-10 00:30N 34°07' E 031°37'612.0
2017-Sep-10 00:00N 34°04' E 031°44'1111.9
2017-Sep-09 23:03N 33°58' E 031°56'411.8
2017-Sep-09 22:44N 33°56' E 031°60'312.1
2017-Sep-09 22:30N 33°55' E 032°02'611.9
2017-Sep-09 22:00N 33°52' E 032°09'611.9
2017-Sep-09 21:28N 33°49' E 032°15'611.8
2017-Sep-09 21:00N 33°47' E 032°21'711.7
2017-Sep-09 20:25N 33°43' E 032°29'511.8
2017-Sep-09 20:00N 33°41' E 032°34'911.7
2017-Sep-09 19:14N 33°37' E 032°43'411.5
2017-Sep-09 18:52N 33°35' E 032°48'711.5
2017-Sep-09 18:16N 33°31' E 032°55'311.4
2017-Sep-09 17:59N 33°30' E 032°58'511.3
2017-Sep-09 17:30N 33°27' E 033°04'  
Track history (hours):
 
Tides and Currents Weather Stations Pressure Air Temp Water Temp Dewpoint Dewpoint Depression Visibility Wind Speed Wind Dir Waves Ship Positions

M/V Adamas

Last reported at 2017-Sep-19 17:03 UTC. Time now 2017-Sep-24 07:01 UTC.
Position N 38°12' E 024°07'.

Length 124 m; draft 5.6 m.

Type: Cargo ship. MMSI: 240544000.

Date/timePositionNaut miles runAvg speedWind from/ knotsBaromVisibWave heightAir tempDewpointWater temp
2017-Sep-19 17:03N 38°12' E 024°07'212.1
2017-Sep-19 16:56N 38°10' E 024°08'512.3
2017-Sep-19 16:30N 38°05' E 024°08'912.4
2017-Sep-19 15:47N 37°57' E 024°14'412.6
2017-Sep-19 15:30N 37°54' E 024°16'612.5
2017-Sep-19 15:00N 37°49' E 024°21'1211.8
2017-Sep-19 14:00N 37°40' E 024°31'1611.9
2017-Sep-19 12:38N 37°28' E 024°44'211.9
2017-Sep-19 12:31N 37°26' E 024°45'612.0
2017-Sep-19 12:01N 37°21' E 024°49'611.9
2017-Sep-19 11:30N 37°15' E 024°50'55011.8
2017-Sep-17 12:49N 32°56' E 034°42'511.9
2017-Sep-17 12:25N 32°55' E 034°48'511.9
2017-Sep-17 11:57N 32°54' E 034°54'611.3
2017-Sep-17 11:23N 32°51' E 035°01'2 0.1
2017-Sep-16 04:29N 32°49' E 035°02'2 3.4
2017-Sep-16 03:53N 32°51' E 035°01'2 5.2
2017-Sep-16 03:26N 32°52' E 034°59'4 9.0
2017-Sep-16 03:00N 32°54' E 034°55'0 0.7
2017-Sep-16 02:30N 32°54' E 034°54'0 0.3
2017-Sep-16 02:00N 32°54' E 034°55'1 2.3
2017-Sep-16 01:30N 32°54' E 034°53'1 2.5
2017-Sep-16 01:00N 32°54' E 034°52'4 5.6
2017-Sep-16 00:13N 32°55' E 034°47'2 8.0
2017-Sep-15 23:59N 32°55' E 034°44'5 9.3
2017-Sep-15 23:30N 32°56' E 034°39'3210.3
2017-Sep-15 20:25N 33°02' E 034°02'1910.8
2017-Sep-15 18:38N 33°10' E 033°41'210.9
2017-Sep-15 18:26N 33°11' E 033°39'510.8
2017-Sep-15 18:00N 33°14' E 033°34'710.8
2017-Sep-15 17:23N 33°17' E 033°27'510.8
2017-Sep-15 16:55N 33°19' E 033°22'610.8
2017-Sep-15 16:20N 33°22' E 033°15'510.7
2017-Sep-15 15:53N 33°25' E 033°10'46410.9
2017-Sep-13 21:10N 37°09' E 024°52'211.6
2017-Sep-13 21:00N 37°11' E 024°52'611.2
2017-Sep-13 20:30N 37°16' E 024°50'611.0
2017-Sep-13 20:00N 37°22' E 024°48'611.2
2017-Sep-13 19:30N 37°26' E 024°44'54 1.1
2017-Sep-11 16:20N 38°11' E 024°07'412.2
2017-Sep-11 16:00N 38°07' E 024°08'511.0
2017-Sep-11 15:30N 38°02' E 024°10'610.7
2017-Sep-11 14:59N 37°57' E 024°14'510.7
2017-Sep-11 14:30N 37°53' E 024°18'510.8
2017-Sep-11 14:00N 37°49' E 024°23'2810.7
2017-Sep-11 11:26N 37°27' E 024°44'510.6
2017-Sep-11 11:00N 37°24' E 024°47'510.5
2017-Sep-11 10:30N 37°19' E 024°49'510.7
2017-Sep-11 10:00N 37°13' E 024°51'24 9.5
2017-Sep-11 07:31N 36°53' E 025°05'010.9
2017-Sep-11 07:30N 36°53' E 025°05'27911.6
2017-Sep-10 07:25N 34°45' E 030°10'511.7
2017-Sep-10 07:00N 34°43' E 030°16'611.5
2017-Sep-10 06:30N 34°40' E 030°22'611.5
2017-Sep-10 06:00N 34°37' E 030°28'611.4
2017-Sep-10 05:30N 34°35' E 030°34'611.7
2017-Sep-10 05:00N 34°32' E 030°40'611.8
2017-Sep-10 04:30N 34°29' E 030°46'611.7
2017-Sep-10 04:00N 34°26' E 030°53'611.8
2017-Sep-10 03:30N 34°23' E 030°59'611.7
2017-Sep-10 03:00N 34°21' E 031°05'611.9
2017-Sep-10 02:30N 34°18' E 031°12'711.9
2017-Sep-10 01:54N 34°14' E 031°19'512.0
2017-Sep-10 01:29N 34°12' E 031°25'612.1
2017-Sep-10 01:00N 34°09' E 031°31'612.2
2017-Sep-10 00:30N 34°07' E 031°37'612.0
2017-Sep-10 00:00N 34°04' E 031°44'1111.9
2017-Sep-09 23:03N 33°58' E 031°56'411.8
2017-Sep-09 22:44N 33°56' E 031°60'312.1
2017-Sep-09 22:30N 33°55' E 032°02'611.9
2017-Sep-09 22:00N 33°52' E 032°09'611.9
2017-Sep-09 21:28N 33°49' E 032°15'611.8
2017-Sep-09 21:00N 33°47' E 032°21'711.7
2017-Sep-09 20:25N 33°43' E 032°29'511.8
2017-Sep-09 20:00N 33°41' E 032°34'911.7
2017-Sep-09 19:14N 33°37' E 032°43'411.5
2017-Sep-09 18:52N 33°35' E 032°48'711.5
2017-Sep-09 18:16N 33°31' E 032°55'311.4
2017-Sep-09 17:59N 33°30' E 032°58'511.3
2017-Sep-09 17:30N 33°27' E 033°04'  

Dump ship's entire track history